sensor_id;sensor_type;location;lat;lon;timestamp;pressure;altitude;pressure_sealevel;temperature;humidity
36242;BME280;22283;42.748;12.732;2023-12-20T00:01:43;98332.16;;;2.14;100.00
36242;BME280;22283;42.748;12.732;2023-12-20T00:06:44;98310.84;;;2.01;100.00
36242;BME280;22283;42.748;12.732;2023-12-20T00:11:44;98313.63;;;1.96;100.00
36242;BME280;22283;42.748;12.732;2023-12-20T00:16:46;98318.09;;;1.93;100.00
36242;BME280;22283;42.748;12.732;2023-12-20T00:21:47;98323.88;;;2.03;100.00
36242;BME280;22283;42.748;12.732;2023-12-20T00:26:48;98319.09;;;1.90;100.00
36242;BME280;22283;42.748;12.732;2023-12-20T00:31:48;98316.09;;;1.76;100.00
36242;BME280;22283;42.748;12.732;2023-12-20T00:36:49;98311.41;;;1.61;100.00
36242;BME280;22283;42.748;12.732;2023-12-20T00:41:50;98320.22;;;1.57;100.00
36242;BME280;22283;42.748;12.732;2023-12-20T00:46:50;98315.34;;;1.47;100.00
36242;BME280;22283;42.748;12.732;2023-12-20T00:51:51;98311.00;;;1.46;100.00
36242;BME280;22283;42.748;12.732;2023-12-20T00:56:53;98309.28;;;1.47;100.00
36242;BME280;22283;42.748;12.732;2023-12-20T01:01:53;98303.72;;;1.31;100.00
36242;BME280;22283;42.748;12.732;2023-12-20T01:06:54;98306.56;;;1.23;100.00
36242;BME280;22283;42.748;12.732;2023-12-20T01:11:55;98299.84;;;1.16;100.00
36242;BME280;22283;42.748;12.732;2023-12-20T01:16:55;98300.16;;;1.07;100.00
36242;BME280;22283;42.748;12.732;2023-12-20T01:21:56;98302.78;;;1.06;100.00
36242;BME280;22283;42.748;12.732;2023-12-20T01:26:57;98300.59;;;0.93;100.00
36242;BME280;22283;42.748;12.732;2023-12-20T01:31:58;98296.59;;;0.83;100.00
36242;BME280;22283;42.748;12.732;2023-12-20T01:36:58;98299.19;;;0.83;100.00
36242;BME280;22283;42.748;12.732;2023-12-20T01:42:00;98279.91;;;0.89;100.00
36242;BME280;22283;42.748;12.732;2023-12-20T01:47:01;98266.06;;;0.87;100.00
36242;BME280;22283;42.748;12.732;2023-12-20T01:52:02;98251.34;;;0.86;100.00
36242;BME280;22283;42.748;12.732;2023-12-20T01:57:03;98249.69;;;0.83;100.00
36242;BME280;22283;42.748;12.732;2023-12-20T02:02:04;98234.34;;;0.74;100.00
36242;BME280;22283;42.748;12.732;2023-12-20T02:07:04;98234.94;;;0.82;100.00
36242;BME280;22283;42.748;12.732;2023-12-20T02:12:05;98218.38;;;0.85;100.00
36242;BME280;22283;42.748;12.732;2023-12-20T02:17:06;98199.94;;;0.91;100.00
36242;BME280;22283;42.748;12.732;2023-12-20T02:22:12;98195.69;;;0.88;100.00
36242;BME280;22283;42.748;12.732;2023-12-20T02:27:15;98187.97;;;0.85;100.00
36242;BME280;22283;42.748;12.732;2023-12-20T02:32:18;98174.94;;;0.85;100.00
36242;BME280;22283;42.748;12.732;2023-12-20T02:37:19;98177.50;;;0.87;100.00
36242;BME280;22283;42.748;12.732;2023-12-20T02:42:20;98163.69;;;0.85;100.00
36242;BME280;22283;42.748;12.732;2023-12-20T02:47:20;98171.34;;;0.89;100.00
36242;BME280;22283;42.748;12.732;2023-12-20T02:52:22;98160.22;;;0.84;100.00
36242;BME280;22283;42.748;12.732;2023-12-20T02:57:23;98155.53;;;0.69;100.00
36242;BME280;22283;42.748;12.732;2023-12-20T03:02:24;98140.16;;;0.61;100.00
36242;BME280;22283;42.748;12.732;2023-12-20T03:07:24;98140.22;;;0.60;100.00
36242;BME280;22283;42.748;12.732;2023-12-20T03:12:25;98145.53;;;0.57;100.00
36242;BME280;22283;42.748;12.732;2023-12-20T03:17:26;98126.63;;;0.50;100.00
36242;BME280;22283;42.748;12.732;2023-12-20T03:22:26;98116.22;;;0.50;100.00
36242;BME280;22283;42.748;12.732;2023-12-20T03:27:27;98111.78;;;0.54;100.00
36242;BME280;22283;42.748;12.732;2023-12-20T03:32:27;98094.88;;;0.40;100.00
36242;BME280;22283;42.748;12.732;2023-12-20T03:37:28;98102.56;;;0.17;100.00
36242;BME280;22283;42.748;12.732;2023-12-20T03:42:29;98103.13;;;-0.02;100.00
36242;BME280;22283;42.748;12.732;2023-12-20T03:47:29;98093.31;;;0.08;100.00
36242;BME280;22283;42.748;12.732;2023-12-20T03:52:30;98087.13;;;0.11;100.00
36242;BME280;22283;42.748;12.732;2023-12-20T03:57:30;98077.84;;;0.30;100.00
36242;BME280;22283;42.748;12.732;2023-12-20T04:02:31;98081.13;;;0.35;100.00
36242;BME280;22283;42.748;12.732;2023-12-20T04:07:32;98081.63;;;0.46;100.00
36242;BME280;22283;42.748;12.732;2023-12-20T04:12:32;98075.31;;;0.54;100.00
36242;BME280;22283;42.748;12.732;2023-12-20T04:17:34;98078.53;;;0.62;100.00
36242;BME280;22283;42.748;12.732;2023-12-20T04:22:34;98066.25;;;0.65;100.00
36242;BME280;22283;42.748;12.732;2023-12-20T04:27:35;98064.47;;;0.67;100.00
36242;BME280;22283;42.748;12.732;2023-12-20T04:32:36;98055.25;;;0.57;100.00
36242;BME280;22283;42.748;12.732;2023-12-20T04:37:36;98057.34;;;0.46;100.00
36242;BME280;22283;42.748;12.732;2023-12-20T04:42:37;98041.41;;;0.30;100.00
36242;BME280;22283;42.748;12.732;2023-12-20T04:47:38;98039.63;;;0.32;100.00
36242;BME280;22283;42.748;12.732;2023-12-20T04:52:38;98040.31;;;0.37;100.00
36242;BME280;22283;42.748;12.732;2023-12-20T04:57:39;98036.88;;;0.35;100.00
36242;BME280;22283;42.748;12.732;2023-12-20T05:02:40;98034.44;;;0.31;100.00
36242;BME280;22283;42.748;12.732;2023-12-20T05:07:40;98030.91;;;0.33;100.00
36242;BME280;22283;42.748;12.732;2023-12-20T05:12:41;98019.81;;;0.28;100.00
36242;BME280;22283;42.748;12.732;2023-12-20T05:17:42;98023.50;;;0.21;100.00
36242;BME280;22283;42.748;12.732;2023-12-20T05:22:43;98031.31;;;0.21;100.00
36242;BME280;22283;42.748;12.732;2023-12-20T05:27:45;98037.31;;;0.23;100.00
36242;BME280;22283;42.748;12.732;2023-12-20T05:32:45;98054.25;;;0.35;100.00
36242;BME280;22283;42.748;12.732;2023-12-20T05:37:46;98055.41;;;0.26;100.00
36242;BME280;22283;42.748;12.732;2023-12-20T05:42:47;98029.81;;;0.14;100.00
36242;BME280;22283;42.748;12.732;2023-12-20T05:47:48;98032.81;;;0.28;100.00
36242;BME280;22283;42.748;12.732;2023-12-20T05:52:49;98031.59;;;0.38;100.00
36242;BME280;22283;42.748;12.732;2023-12-20T05:57:50;98029.66;;;0.43;100.00
36242;BME280;22283;42.748;12.732;2023-12-20T06:02:51;98024.59;;;0.40;100.00
36242;BME280;22283;42.748;12.732;2023-12-20T06:07:52;98018.00;;;0.30;100.00
36242;BME280;22283;42.748;12.732;2023-12-20T06:12:52;98012.28;;;0.19;100.00
36242;BME280;22283;42.748;12.732;2023-12-20T06:17:53;97995.59;;;-0.01;100.00
36242;BME280;22283;42.748;12.732;2023-12-20T06:22:53;97990.78;;;-0.13;100.00
36242;BME280;22283;42.748;12.732;2023-12-20T06:27:54;97981.00;;;-0.31;100.00
36242;BME280;22283;42.748;12.732;2023-12-20T06:32:55;97977.69;;;-0.36;100.00
36242;BME280;22283;42.748;12.732;2023-12-20T06:37:58;97971.34;;;-0.56;100.00
36242;BME280;22283;42.748;12.732;2023-12-20T06:42:58;97973.31;;;-0.62;100.00
36242;BME280;22283;42.748;12.732;2023-12-20T06:48:00;97979.22;;;-0.57;100.00
36242;BME280;22283;42.748;12.732;2023-12-20T06:53:00;97967.75;;;-0.52;100.00
36242;BME280;22283;42.748;12.732;2023-12-20T06:58:07;97976.75;;;-0.34;100.00
36242;BME280;22283;42.748;12.732;2023-12-20T07:03:09;97968.69;;;-0.26;100.00
36242;BME280;22283;42.748;12.732;2023-12-20T07:08:10;97970.09;;;-0.16;100.00
36242;BME280;22283;42.748;12.732;2023-12-20T07:13:11;97980.09;;;-0.04;100.00
36242;BME280;22283;42.748;12.732;2023-12-20T07:18:12;97963.34;;;0.05;100.00
36242;BME280;22283;42.748;12.732;2023-12-20T07:23:13;97988.09;;;0.17;100.00
36242;BME280;22283;42.748;12.732;2023-12-20T07:28:14;97973.84;;;0.27;100.00
36242;BME280;22283;42.748;12.732;2023-12-20T07:33:14;97997.97;;;0.32;100.00
36242;BME280;22283;42.748;12.732;2023-12-20T07:38:16;97963.13;;;0.11;100.00
36242;BME280;22283;42.748;12.732;2023-12-20T07:43:16;97968.94;;;-0.07;100.00
36242;BME280;22283;42.748;12.732;2023-12-20T07:48:17;97971.50;;;-0.06;100.00
36242;BME280;22283;42.748;12.732;2023-12-20T07:53:18;97984.56;;;0.18;100.00
36242;BME280;22283;42.748;12.732;2023-12-20T07:58:19;97969.28;;;0.34;100.00
36242;BME280;22283;42.748;12.732;2023-12-20T08:03:19;97980.78;;;0.77;100.00
36242;BME280;22283;42.748;12.732;2023-12-20T08:08:20;97983.91;;;1.10;100.00
36242;BME280;22283;42.748;12.732;2023-12-20T08:13:21;97997.97;;;1.51;100.00
36242;BME280;22283;42.748;12.732;2023-12-20T08:18:26;97989.13;;;1.77;100.00
36242;BME280;22283;42.748;12.732;2023-12-20T08:23:27;97988.50;;;1.92;100.00
36242;BME280;22283;42.748;12.732;2023-12-20T08:28:27;97990.69;;;2.03;100.00
36242;BME280;22283;42.748;12.732;2023-12-20T08:33:28;98006.91;;;2.10;100.00
36242;BME280;22283;42.748;12.732;2023-12-20T08:38:29;97985.69;;;2.19;100.00
36242;BME280;22283;42.748;12.732;2023-12-20T08:43:29;97984.50;;;2.46;100.00
36242;BME280;22283;42.748;12.732;2023-12-20T08:48:30;97991.91;;;2.76;100.00
36242;BME280;22283;42.748;12.732;2023-12-20T08:53:31;97980.44;;;2.99;100.00
36242;BME280;22283;42.748;12.732;2023-12-20T08:58:31;97978.53;;;3.40;100.00
36242;BME280;22283;42.748;12.732;2023-12-20T09:03:33;97969.25;;;3.71;100.00
36242;BME280;22283;42.748;12.732;2023-12-20T09:08:34;97963.28;;;4.04;96.91
36242;BME280;22283;42.748;12.732;2023-12-20T09:13:35;97952.47;;;4.29;95.25
36242;BME280;22283;42.748;12.732;2023-12-20T09:18:36;97948.72;;;4.50;91.98
36242;BME280;22283;42.748;12.732;2023-12-20T09:23:36;97938.91;;;4.71;93.06
36242;BME280;22283;42.748;12.732;2023-12-20T09:28:37;97936.91;;;4.76;93.53
36242;BME280;22283;42.748;12.732;2023-12-20T09:33:39;97937.63;;;4.96;93.59
36242;BME280;22283;42.748;12.732;2023-12-20T09:38:39;97931.06;;;5.20;92.87
36242;BME280;22283;42.748;12.732;2023-12-20T09:43:41;97936.56;;;5.31;90.71
36242;BME280;22283;42.748;12.732;2023-12-20T09:48:44;97931.47;;;5.44;89.63
36242;BME280;22283;42.748;12.732;2023-12-20T09:53:46;97931.19;;;5.64;87.87
36242;BME280;22283;42.748;12.732;2023-12-20T09:58:47;97913.25;;;5.73;87.78
36242;BME280;22283;42.748;12.732;2023-12-20T10:03:54;97908.13;;;5.85;86.62
36242;BME280;22283;42.748;12.732;2023-12-20T10:08:55;97904.47;;;6.04;85.94
36242;BME280;22283;42.748;12.732;2023-12-20T10:14:01;97892.31;;;6.17;86.48
36242;BME280;22283;42.748;12.732;2023-12-20T10:19:02;97885.63;;;6.42;84.71
36242;BME280;22283;42.748;12.732;2023-12-20T10:24:03;97872.84;;;6.50;83.62
36242;BME280;22283;42.748;12.732;2023-12-20T10:29:04;97852.94;;;6.60;83.90
36242;BME280;22283;42.748;12.732;2023-12-20T10:34:05;97845.41;;;6.82;83.52
36242;BME280;22283;42.748;12.732;2023-12-20T10:39:07;97830.19;;;7.02;81.74
36242;BME280;22283;42.748;12.732;2023-12-20T10:44:10;97826.75;;;7.14;82.67
36242;BME280;22283;42.748;12.732;2023-12-20T10:49:11;97802.31;;;7.12;83.17
36242;BME280;22283;42.748;12.732;2023-12-20T10:54:12;97783.72;;;7.15;83.03
36242;BME280;22283;42.748;12.732;2023-12-20T10:59:14;97808.66;;;7.36;82.34
36242;BME280;22283;42.748;12.732;2023-12-20T11:04:21;97805.78;;;7.39;82.45
36242;BME280;22283;42.748;12.732;2023-12-20T11:09:26;97777.63;;;7.54;81.70
36242;BME280;22283;42.748;12.732;2023-12-20T11:25:07;97725.44;;;8.12;76.41
36242;BME280;22283;42.748;12.732;2023-12-20T11:30:11;97721.47;;;8.30;76.19
36242;BME280;22283;42.748;12.732;2023-12-20T11:40:16;97690.78;;;8.55;74.47
36242;BME280;22283;42.748;12.732;2023-12-20T11:45:19;97686.75;;;8.62;73.50
36242;BME280;22283;42.748;12.732;2023-12-20T11:50:23;97700.22;;;8.70;71.24
36242;BME280;22283;42.748;12.732;2023-12-20T11:55:24;97699.78;;;8.76;69.56
36242;BME280;22283;42.748;12.732;2023-12-20T12:00:25;97707.97;;;8.84;68.51
36242;BME280;22283;42.748;12.732;2023-12-20T12:05:25;97703.81;;;8.69;71.66
36242;BME280;22283;42.748;12.732;2023-12-20T12:10:26;97726.00;;;8.54;74.95
36242;BME280;22283;42.748;12.732;2023-12-20T12:15:27;97727.38;;;8.47;74.75
36242;BME280;22283;42.748;12.732;2023-12-20T12:20:27;97722.41;;;8.68;66.92
36242;BME280;22283;42.748;12.732;2023-12-20T12:25:29;97715.19;;;8.70;65.01
36242;BME280;22283;42.748;12.732;2023-12-20T12:30:31;97722.84;;;8.85;65.02
36242;BME280;22283;42.748;12.732;2023-12-20T12:35:31;97724.78;;;9.07;60.89
36242;BME280;22283;42.748;12.732;2023-12-20T12:40:34;97707.69;;;9.24;60.24
36242;BME280;22283;42.748;12.732;2023-12-20T12:45:36;97697.63;;;9.29;59.61
36242;BME280;22283;42.748;12.732;2023-12-20T12:50:37;97687.84;;;9.43;58.86
36242;BME280;22283;42.748;12.732;2023-12-20T12:55:37;97670.44;;;9.51;59.06
36242;BME280;22283;42.748;12.732;2023-12-20T13:00:38;97652.09;;;9.61;59.84
36242;BME280;22283;42.748;12.732;2023-12-20T13:05:39;97646.81;;;9.72;60.11
36242;BME280;22283;42.748;12.732;2023-12-20T13:10:40;97646.59;;;9.75;58.20
36242;BME280;22283;42.748;12.732;2023-12-20T13:15:41;97619.06;;;9.78;58.45
36242;BME280;22283;42.748;12.732;2023-12-20T13:20:42;97623.28;;;9.80;58.89
36242;BME280;22283;42.748;12.732;2023-12-20T13:25:43;97622.47;;;9.80;58.95
36242;BME280;22283;42.748;12.732;2023-12-20T13:30:43;97612.97;;;9.77;59.02
36242;BME280;22283;42.748;12.732;2023-12-20T13:35:44;97609.63;;;9.75;58.70
36242;BME280;22283;42.748;12.732;2023-12-20T13:40:45;97600.72;;;9.76;59.71
36242;BME280;22283;42.748;12.732;2023-12-20T13:45:45;97606.84;;;9.88;60.21
36242;BME280;22283;42.748;12.732;2023-12-20T13:50:47;97607.69;;;10.00;60.16
36242;BME280;22283;42.748;12.732;2023-12-20T13:55:48;97600.22;;;10.05;61.53
36242;BME280;22283;42.748;12.732;2023-12-20T14:00:48;97593.84;;;10.07;61.80
36242;BME280;22283;42.748;12.732;2023-12-20T14:05:49;97593.25;;;10.15;61.50
36242;BME280;22283;42.748;12.732;2023-12-20T14:10:50;97611.63;;;10.28;59.52
36242;BME280;22283;42.748;12.732;2023-12-20T14:15:50;97610.06;;;10.37;57.70
36242;BME280;22283;42.748;12.732;2023-12-20T14:20:51;97604.44;;;10.30;57.79
36242;BME280;22283;42.748;12.732;2023-12-20T14:25:52;97600.94;;;10.18;57.72
36242;BME280;22283;42.748;12.732;2023-12-20T14:30:53;97591.81;;;10.00;60.17
36242;BME280;22283;42.748;12.732;2023-12-20T14:35:53;97593.28;;;9.70;61.90
36242;BME280;22283;42.748;12.732;2023-12-20T14:40:54;97598.78;;;9.45;63.23
36242;BME280;22283;42.748;12.732;2023-12-20T14:45:54;97602.84;;;9.49;62.92
36242;BME280;22283;42.748;12.732;2023-12-20T14:50:55;97601.41;;;9.45;63.09
36242;BME280;22283;42.748;12.732;2023-12-20T14:55:56;97603.56;;;9.28;63.22
36242;BME280;22283;42.748;12.732;2023-12-20T15:00:56;97597.97;;;9.09;64.38
36242;BME280;22283;42.748;12.732;2023-12-20T15:05:57;97618.97;;;8.75;68.65
36242;BME280;22283;42.748;12.732;2023-12-20T15:10:59;97632.19;;;8.38;70.72
36242;BME280;22283;42.748;12.732;2023-12-20T15:15:59;97635.44;;;8.05;72.55
36242;BME280;22283;42.748;12.732;2023-12-20T15:21:00;97628.09;;;7.72;74.53
36242;BME280;22283;42.748;12.732;2023-12-20T15:26:01;97636.31;;;7.55;77.01
36242;BME280;22283;42.748;12.732;2023-12-20T15:31:02;97638.00;;;7.43;79.23
36242;BME280;22283;42.748;12.732;2023-12-20T15:36:06;97635.69;;;7.26;83.23
36242;BME280;22283;42.748;12.732;2023-12-20T15:41:07;97622.19;;;7.05;87.01
36242;BME280;22283;42.748;12.732;2023-12-20T15:46:09;97630.13;;;6.78;89.62
36242;BME280;22283;42.748;12.732;2023-12-20T15:51:20;97626.88;;;6.60;92.95
36242;BME280;22283;42.748;12.732;2023-12-20T15:56:21;97624.59;;;6.41;93.60
36242;BME280;22283;42.748;12.732;2023-12-20T16:01:21;97629.81;;;6.28;94.21
36242;BME280;22283;42.748;12.732;2023-12-20T16:06:22;97614.84;;;6.02;96.13
36242;BME280;22283;42.748;12.732;2023-12-20T16:11:22;97628.34;;;5.81;97.60
36242;BME280;22283;42.748;12.732;2023-12-20T16:16:23;97640.34;;;5.57;99.54
36242;BME280;22283;42.748;12.732;2023-12-20T16:21:24;97644.66;;;5.43;100.00
36242;BME280;22283;42.748;12.732;2023-12-20T16:26:24;97625.69;;;5.38;99.17
36242;BME280;22283;42.748;12.732;2023-12-20T16:31:25;97626.56;;;5.39;98.03
36242;BME280;22283;42.748;12.732;2023-12-20T16:36:52;97634.06;;;5.31;98.13
36242;BME280;22283;42.748;12.732;2023-12-20T16:41:54;97631.16;;;5.35;99.53
36242;BME280;22283;42.748;12.732;2023-12-20T16:46:55;97620.28;;;5.41;98.61
36242;BME280;22283;42.748;12.732;2023-12-20T16:51:55;97617.75;;;5.68;96.83
36242;BME280;22283;42.748;12.732;2023-12-20T16:56:57;97614.84;;;5.73;95.70
36242;BME280;22283;42.748;12.732;2023-12-20T17:01:57;97610.25;;;5.48;97.18
36242;BME280;22283;42.748;12.732;2023-12-20T17:06:58;97619.72;;;5.36;98.36
36242;BME280;22283;42.748;12.732;2023-12-20T17:11:59;97624.78;;;5.39;99.20
36242;BME280;22283;42.748;12.732;2023-12-20T17:17:00;97633.56;;;5.38;99.01
36242;BME280;22283;42.748;12.732;2023-12-20T17:22:01;97628.50;;;5.21;99.65
36242;BME280;22283;42.748;12.732;2023-12-20T17:27:03;97626.66;;;5.23;100.00
36242;BME280;22283;42.748;12.732;2023-12-20T17:32:05;97624.38;;;5.17;100.00
36242;BME280;22283;42.748;12.732;2023-12-20T17:37:06;97630.84;;;5.26;100.00
36242;BME280;22283;42.748;12.732;2023-12-20T17:42:06;97629.06;;;5.26;100.00
36242;BME280;22283;42.748;12.732;2023-12-20T17:47:07;97657.75;;;5.29;99.38
36242;BME280;22283;42.748;12.732;2023-12-20T17:52:07;97668.97;;;5.17;100.00
36242;BME280;22283;42.748;12.732;2023-12-20T17:57:09;97658.06;;;5.09;100.00
36242;BME280;22283;42.748;12.732;2023-12-20T18:02:09;97663.16;;;5.12;100.00
36242;BME280;22283;42.748;12.732;2023-12-20T18:07:11;97663.22;;;5.10;100.00
36242;BME280;22283;42.748;12.732;2023-12-20T18:12:11;97674.66;;;5.09;100.00
36242;BME280;22283;42.748;12.732;2023-12-20T18:17:12;97681.69;;;5.09;100.00
36242;BME280;22283;42.748;12.732;2023-12-20T18:22:13;97686.75;;;5.12;100.00
36242;BME280;22283;42.748;12.732;2023-12-20T18:27:14;97696.66;;;5.07;100.00
36242;BME280;22283;42.748;12.732;2023-12-20T18:32:16;97694.38;;;5.01;100.00
36242;BME280;22283;42.748;12.732;2023-12-20T18:37:16;97704.09;;;4.99;100.00
36242;BME280;22283;42.748;12.732;2023-12-20T18:42:17;97701.31;;;5.02;100.00
36242;BME280;22283;42.748;12.732;2023-12-20T18:47:17;97692.75;;;4.84;100.00
36242;BME280;22283;42.748;12.732;2023-12-20T18:52:18;97708.78;;;4.78;100.00
36242;BME280;22283;42.748;12.732;2023-12-20T18:57:19;97703.28;;;4.82;100.00
36242;BME280;22283;42.748;12.732;2023-12-20T19:02:19;97708.38;;;4.85;100.00
36242;BME280;22283;42.748;12.732;2023-12-20T19:07:20;97703.56;;;4.78;100.00
36242;BME280;22283;42.748;12.732;2023-12-20T19:12:21;97715.50;;;4.67;100.00
36242;BME280;22283;42.748;12.732;2023-12-20T19:17:21;97716.34;;;4.52;100.00
36242;BME280;22283;42.748;12.732;2023-12-20T19:22:22;97723.44;;;4.50;100.00
36242;BME280;22283;42.748;12.732;2023-12-20T19:27:24;97698.84;;;4.53;100.00
36242;BME280;22283;42.748;12.732;2023-12-20T19:32:24;97706.88;;;4.50;100.00
36242;BME280;22283;42.748;12.732;2023-12-20T19:37:25;97703.50;;;4.48;100.00
36242;BME280;22283;42.748;12.732;2023-12-20T19:42:26;97711.69;;;4.41;100.00
36242;BME280;22283;42.748;12.732;2023-12-20T19:47:26;97690.22;;;4.35;100.00
36242;BME280;22283;42.748;12.732;2023-12-20T19:52:27;97696.97;;;4.39;100.00
36242;BME280;22283;42.748;12.732;2023-12-20T19:57:28;97694.59;;;4.66;100.00
36242;BME280;22283;42.748;12.732;2023-12-20T20:02:29;97691.25;;;4.48;100.00
36242;BME280;22283;42.748;12.732;2023-12-20T20:07:30;97669.94;;;4.23;100.00
36242;BME280;22283;42.748;12.732;2023-12-20T20:12:31;97693.09;;;4.30;100.00
36242;BME280;22283;42.748;12.732;2023-12-20T20:17:33;97672.16;;;4.30;100.00
36242;BME280;22283;42.748;12.732;2023-12-20T20:22:33;97691.06;;;4.35;100.00
36242;BME280;22283;42.748;12.732;2023-12-20T20:27:35;97696.13;;;4.38;100.00
36242;BME280;22283;42.748;12.732;2023-12-20T20:32:36;97699.19;;;4.31;100.00
36242;BME280;22283;42.748;12.732;2023-12-20T20:37:36;97709.16;;;4.24;100.00
36242;BME280;22283;42.748;12.732;2023-12-20T20:42:39;97691.72;;;4.07;100.00
36242;BME280;22283;42.748;12.732;2023-12-20T20:47:39;97715.56;;;4.34;100.00
36242;BME280;22283;42.748;12.732;2023-12-20T20:52:41;97700.53;;;4.54;100.00
36242;BME280;22283;42.748;12.732;2023-12-20T20:57:47;97691.69;;;4.86;100.00
36242;BME280;22283;42.748;12.732;2023-12-20T21:02:50;97704.88;;;5.01;100.00
36242;BME280;22283;42.748;12.732;2023-12-20T21:07:50;97705.09;;;5.12;100.00
36242;BME280;22283;42.748;12.732;2023-12-20T21:12:51;97717.34;;;5.27;100.00
36242;BME280;22283;42.748;12.732;2023-12-20T21:17:52;97700.81;;;5.11;100.00
36242;BME280;22283;42.748;12.732;2023-12-20T21:22:52;97721.28;;;5.04;100.00
36242;BME280;22283;42.748;12.732;2023-12-20T21:27:53;97720.53;;;4.86;100.00
36242;BME280;22283;42.748;12.732;2023-12-20T21:32:54;97697.31;;;4.64;100.00
36242;BME280;22283;42.748;12.732;2023-12-20T21:37:54;97718.78;;;4.71;100.00
36242;BME280;22283;42.748;12.732;2023-12-20T21:42:55;97719.44;;;4.59;100.00
36242;BME280;22283;42.748;12.732;2023-12-20T21:47:56;97699.13;;;4.32;100.00
36242;BME280;22283;42.748;12.732;2023-12-20T21:52:57;97699.69;;;4.37;100.00
36242;BME280;22283;42.748;12.732;2023-12-20T21:57:58;97701.06;;;4.29;100.00
36242;BME280;22283;42.748;12.732;2023-12-20T22:02:59;97695.44;;;4.19;100.00
36242;BME280;22283;42.748;12.732;2023-12-20T22:07:59;97682.28;;;4.05;100.00
36242;BME280;22283;42.748;12.732;2023-12-20T22:13:00;97690.13;;;4.05;100.00
36242;BME280;22283;42.748;12.732;2023-12-20T22:18:01;97701.84;;;3.98;100.00
36242;BME280;22283;42.748;12.732;2023-12-20T22:23:01;97689.69;;;3.81;100.00
36242;BME280;22283;42.748;12.732;2023-12-20T22:28:03;97713.56;;;3.90;100.00
36242;BME280;22283;42.748;12.732;2023-12-20T22:33:04;97707.41;;;3.91;100.00
36242;BME280;22283;42.748;12.732;2023-12-20T22:38:05;97702.94;;;3.93;100.00
36242;BME280;22283;42.748;12.732;2023-12-20T22:43:05;97708.94;;;3.95;100.00
36242;BME280;22283;42.748;12.732;2023-12-20T22:48:06;97715.03;;;3.96;100.00
36242;BME280;22283;42.748;12.732;2023-12-20T22:53:07;97705.00;;;4.04;100.00
36242;BME280;22283;42.748;12.732;2023-12-20T22:58:08;97686.59;;;4.06;100.00
36242;BME280;22283;42.748;12.732;2023-12-20T23:03:08;97698.25;;;4.16;100.00
36242;BME280;22283;42.748;12.732;2023-12-20T23:08:09;97694.63;;;4.18;100.00
36242;BME280;22283;42.748;12.732;2023-12-20T23:13:11;97691.25;;;4.16;100.00
36242;BME280;22283;42.748;12.732;2023-12-20T23:18:12;97694.28;;;4.09;100.00
36242;BME280;22283;42.748;12.732;2023-12-20T23:23:13;97699.34;;;4.12;100.00
36242;BME280;22283;42.748;12.732;2023-12-20T23:28:13;97700.19;;;4.12;100.00
36242;BME280;22283;42.748;12.732;2023-12-20T23:33:14;97706.09;;;4.00;100.00
36242;BME280;22283;42.748;12.732;2023-12-20T23:38:15;97711.28;;;3.84;100.00
36242;BME280;22283;42.748;12.732;2023-12-20T23:43:16;97696.75;;;3.79;100.00
36242;BME280;22283;42.748;12.732;2023-12-20T23:48:17;97693.13;;;3.81;100.00
36242;BME280;22283;42.748;12.732;2023-12-20T23:53:17;97689.50;;;3.84;100.00
36242;BME280;22283;42.748;12.732;2023-12-20T23:58:18;97690.03;;;3.90;100.00
